Scroll down
FLIGHT INFORMATION
Federal Express (FedEx)

FDX9893

At Arrival Gate

KPHL
 KMEM
DATE: 2022-06-16
GATE: 14
GATE DEPARTURE: 20:51
TAKEOFF: 20:56
DATE: 2022-06-16
GATE:  -
LANDING: 23:27
GATE ARRIVAL: 23:36
FLIGHT DATA
Crew: 
Speed: 
507 kts
Altitude: 
38,117 ft
Stage Length: 
758.6 nm
Block Time: 
2.7 hrs
Flight Time: 
2.5 hrs
Fuel Used: 
31,469 lb
Cleared Route: KPHL MXE PENSY FLIRT HYPER MRB EYTEE COLNS PERKS HVQ SPAYD YOCKY UNCKL RYANS BWG KMEM
TRACK DATA
50,000 ft 1,000 kts
AIRCRAFT INFO AND CUMULATIVE STATS
Aircraft Type: 
B77LF
Registration: 
SELCAL: 
MSN/LN: 
41736 / 1616
Total Flights: 
4
Total Block Time: 
22.3 hrs
Total Flight Time: 
21.4 hrs
Total Fuel Used: 
355,325 lb
DATALINK LOG | Newest first | Current as of: 2022-09-29 23:54:25
LABEL SEQUENCE CONTENT Dn/Up
QD385123:36 11.3▼ Dn
QC294223:27▼ Dn
2U1631KMEM 162254Z 22006KT 10SM FEW060 37/22 A3003 RMK AO2 SLP163 T03670217▲ Up
2S1631KMEM▼ Dn
UM2121540KMEM ATIS - MEM ATIS INFO Z 2254Z. 22006KT 10SM FEW060 37/22 A3003 (THREE ZERO ZERO THREE) RMK AO2 SLP163. SIMUL VISUAL APCHS IN USE RY 18L, 18R, 27. SIMUL DEPS IN USE RY 18R 18C 18L. 18L. NOTAM. THE ONE HUNDRED EIGHTY FOOT CRANE NORTH OF RWY 27 IS DOWN. TWY N CLSD BTN TWY P AND TWY M1 ; TWY J CLSD BTN TWY E AND TWY R ; TWY H CLSD BTN RWY 36C AND TWY J ; TWY R CLSD BTN RWY 36C AND TWY J ; TWY J BTN P AND E CLSD. RWY 36C PAPEE OTS. BIRD ACTIVITY RPTD IN THE VC OF THE ARPT. HAZD WX INFO FOR MEM AREA AVBL FM FSS. READBACK ALL RWY * HOLD SHORT INSTRUCTIONS. RECAT WAKE TURBULENCE SEPARATION STANDARDS IN EFFECT. ALL ACFT CTC GC FOR PUSHBACK ONTO TWY N OR TWY J.. ...ADVS YOU HAVE INFO Z.▲ Up
DM791530 ATIS KMEM A▼ Dn
QB592320:56▼ Dn
QA541820:51 42.8▼ Dn
UM2124726KPHL ATIS - PHL DEP INFO Q 1954Z. 22009KT 10SM FEW027 BKN035 OVC250 25/18 A3005 (THREE ZERO ZERO FIVE). DEPG 27L. NOTAMS... RY 35 REILS OTS. TWY K CLSD BTN, TWY Y AND TWY K6 . .. TWY W CLSD BTN RWY 09L AND TWY K .. TOWER FREQ 118.5 FOR DEPARTURE. PHL CODED DEP RTE ACTV. ZNY SWAP IN EFCT. FOLLOWING ESCAPE RTES IN EFCT PHLYER NORTH, PHLYER WEST, PHLYER SOUTH 2 CTC CLNC DLVR FOR REROUTES. HAZD WX INFO, FOR PHL AREA CONVECTIVE SIGMET 55E CONVECTIVE SIGMET 35E CONVECTIVE SIGMET 38E AVAIL FM HIWAS, FSS.. UNLIGHTED CRANE 64 FT AGL 332 FT SOUTHEAST OF RWY, 17, CRANE OBSTRUCTION 1228 FEET FROM DEPARTURE END OF RUNWAY. 332 FEET LEFT OF CENTERLINE. 55 FEET AGL. 64 FEET MSL. ...ADVS YOU HAVE INFO Q.▲ Up
DM794716 ATIS KPHL D▼ Dn
2U4613KPHL 161954Z 21009KT 10SM FEW027 BKN035 OVC250 25/18 A3005 RMK AO2 SLP176 T02500178▲ Up
2U4612KMEM 161954Z 15009KT 10SM FEW048 SCT250 37/22 A3008 RMK AO2 SLP181 T03720217▲ Up
2S4612KPHL KMEM▼ Dn
A34611CLEARED TO KMEM VIA MXE PENSY J110 FLIRT J6 HVQ Q68 BWG BLUZZ3. SQUAWK 3331.▲ Up
Q04510[LINK ACK]▲ Up
Q04510[LINK TEST]▼ Dn


AIRCRAFT HISTORY
FLIGHT DATE FLIGHT NO. ORIGIN DESTINATION CLEARED ROUTE BLOCK TIME FLIGHT TIME FUEL USED PILOT
2022-07-09FDX2KMEM EGSS KMEM OHULO PXV ROD MFD CXR JHW AUDIL PUPPY PAYGE CAM ENE AJJAY ALLEX NICSO 4850N 5040N 5130N 5220N LIMRI XETBO EVRIN NEKAP LAZTU ABDUK NUMPO OKESI HOFIK BEDEK EGSS7.6 hrs7.4 hrs113,914 lbAllan Burek
2022-06-16FDX9893KPHL KMEM KPHL MXE PENSY FLIRT HYPER MRB EYTEE COLNS PERKS HVQ SPAYD YOCKY UNCKL RYANS BWG KMEM2.7 hrs2.5 hrs31,469 lbAllan Burek
2022-02-05FDX205KMEM KPHL KMEM DIYAB WAKOL SWAPP GHATS FOUNT TONIO KONGO NEALS SITTR ASBUR DENNY MAULS GVE KPHL2.2 hrs2 hrs35,030 lbJohn Binner
2021-07-07FDX707EDDF KMEM EDDF OBOKA ROCUH TINIK TORNU BREDA GALSO AMRIV MOMIC SUMUM BLIXY ARREK ERING TOBIX TUGPO TERKO SIRGO FERIT LAM UGBET CPT KENET GAVGO DEZZU DIKAS LUFTU STU BANBA DINIM 5120N 5130N 5040N 4750N PORTI MIILS CABCI NIPPY KRAZZ GONZZ HANKK JHW DORET WWSHR DUTSH KLYNE SEELA CREEP PXV KMEM9.8 hrs9.5 hrs174,912 lbCharles Harris